Portada
METAR-TAF:

METAR-TAF

Aeroports :

Busan, Corea del Sud

latitud: 35-11N, longitud: 128-56E, altitud: 4 m

Observació

L'informe es va fer fa 23 minuts, a les 18:00 UTC
Vent 3 kt del Nord/Nord-Est
Temperatura 20°C
Humitat 83%
Pressió 1008 hPa
Visibilitat 10 km o més
sense núvols per sota de 1500 mi sense presència de cumulonimbus.

METAR: RKPK 161800Z 03003KT CAVOK 20/17 Q1008

Hora: 03:23 (18:23 UTC)

Pronòstic

L'informe es va fer fa 1 hora i 23 minuts, a les 17:00 UTC
Pronòstic vàlid del 16 a les 18 UTC al 17 a les 24 UTC
Vent 6 kt del Nord/Nord-Oest
Visibilitat 10 km o més
Núvols disperses a una alçada de 3000 ft
Cel ennuvolat a una alçada de 20000 ft
Evolucionant progressivament
l' 17 a les 02 UTC al 17 a les 03 UTC
Vent 8 kt del Sud/Sud-Oest
Evolucionant progressivament
l' 17 a les 11 UTC al 17 a les 12 UTC
Vent 6 kt del Nord/Nord-Oest

TAF: RKPK 161700Z 1618/1724 33006KT 9999 SCT030 BKN200 TN19/1621Z TX29/1706Z BECMG 1702/1703 20008KT BECMG 1711/1712 33006KT

Observacions i pronòstics meteorològics de més de 4000 aeroports (METAR i TAF).

Les estacions disponibles són els punts grocs i vermells al mapa.

Posi el ratolí al punt desitjat per veure el nom de l'estació.

Feu clic per veure les observacions i els pronòstics meteorològics.

Per canviar el mapa: feu clic els botons verds amb una creu de color negre per apropar; al botó verd amb un guió per allunyar la imatge; o en les fletxes verdes per a mapes adjacents.


METAR-TAF: